NCAR-RAP Real-Time Weather Data

Output produced by METARs form (24 April 2018  16:24 UTC)
found at http://weather.rap.ucar.edu/surface/
 
RJNW 241000Z 11008KT 1000 R25/P1800N RA BR FEW000 SCT001 BKN002 13/13 Q1006
RJNW 240900Z 11007KT 0500 R25/0700N -RA FG FEW000 BKN001 BKN002 13/13 Q1006
RJNW 240800Z 11007KT 070V140 0800 R25/0900V1300N -RA FG FEW000 BKN001 BKN002 13/13 Q1007
RJNW 240700Z 10007KT 1000 R25/1800U -RA BR FEW000 BKN001 BKN006 13/13 Q1007
RJNW 240600Z 11009KT 0500 R25/0400V0800D -RA FG FEW000 BKN001 BKN006 13/13 Q1007
RJNW 240500Z 11007KT 1000 R25/P1800N -RA BR FEW000 SCT001 BKN002 13/13 Q1008
RJNW 240400Z 11007KT 1000 R25/P1800N -RA BR FEW000 SCT001 BKN002 13/13 Q1009
RJNW 240300Z 11007KT 0800 R25/0700VP1800D -RA FG FEW000 BKN001 BKN002 13/13 Q1010
RJNW 240200Z 11007KT 0500 R25/0650V1200U -RA FG SCT000 BKN001 BKN002 13/13 Q1011
RJNW 240100Z 10007KT 0300 R25/0500V1400D -RA FG VV001 13/13 Q1012
RJNW 240000Z 10009KT 0600 R25/0900V1700U -RA FG SCT000 BKN001 BKN002 13/12 Q1012
RJNW 232300Z 08007KT 0800 R25/P1800N -RA FG FEW000 SCT001 BKN002 12/12 Q1013
RJNW 231000Z 06005KT 9999 FEW030 SCT060 BKN070 13/08 Q1018
RJNW 230900Z 06004KT 020V100 9999 FEW030 BKN070 BKN/// 14/11 Q1017
RJNW 230800Z VRB03KT 9999 FEW030 BKN/// 17/12 Q1017
RJNW 230700Z 12005KT 080V150 9999 FEW030 BKN/// 17/13 Q1017
RJNW 230600Z 12006KT 090V160 9999 FEW030 BKN/// 19/11 Q1017
RJNW 230500Z 12006KT 070V190 CAVOK 20/13 Q1017
RJNW 230400Z 10006KT 010V160 CAVOK 20/12 Q1018
RJNW 230300Z 12007KT 090V160 9999 FEW030 BKN/// 19/12 Q1018
RJNW 230200Z 07007KT 040V120 9999 FEW030 SCT150 BKN/// 18/11 Q1019
RJNW 230100Z 07009KT 040V110 CAVOK 18/10 Q1020
RJNW 230000Z 09006KT 8000 FEW000 SCT010 BKN/// 14/11 Q1020
RJNW 222300Z 06005KT 020V100 5000 BR FEW000 SCT003 BKN005 12/11 Q1021
RJNW 221000Z 22004KT CAVOK 15/11 Q1018
RJNW 220900Z 23010KT CAVOK 18/11 Q1017
RJNW 220800Z 24012KT CAVOK 20/11 Q1018
RJNW 220700Z 27009KT 240V310 CAVOK 21/13 Q1018
RJNW 220600Z 23013KT 210V270 CAVOK 24/09 Q1018
RJNW 220500Z 25010KT 230V300 CAVOK 24/10 Q1018